• Join FlightAware (Why Join?)
  • Login
  • US Flag 
09:10AM EDT


 

Airport Tracker/Info


-or-


 

Live Flight TrackerFlight Track Log ✈ RPA3108 ✈ 31-Jul-2013 ✈ KPHL - KPWM

Flight Track Log - Related Links

Times and Time Zones

All times are in EDT time to prevent confusion due to time zone crossing. See the RPA3108 flight status page for this flight to view local times or setup timezone preferences in your user account.

Time Position Orientation Groundspeed Altitude Reporting Facility
EDT Latitude Longitude Course Direction KTS MPH feet Rate Location/Type
09:37AM 39.8500 -75.2833 90° East 158 182 1,000  Level Philadelphia TRACON
09:39AM 39.8130 -74.8485 105° East  Level FlightAware Approximate
09:39AM 39.7833 -75.3500 218° Southwest 252 290 4,000  Level Philadelphia TRACON
09:40AM 39.7871 -74.7190 105° East  Level FlightAware Approximate
09:40AM 39.7500 -75.2667 117° Southeast 287 330 7,200  Level Philadelphia TRACON
09:41AM 39.8000 -74.5885 90° East  Level FlightAware Approximate
09:41AM 39.7500 -75.1667 90° East 299 344 10,200  Level Philadelphia TRACON
09:42AM 39.8000 -74.4547 90° East  Level FlightAware Approximate
09:42AM 39.7719 -74.9733 82° East 340 391 12,000  Level New York Center
09:43AM 39.7797 -74.8686 84° East 340 391 12,000 1,260 Level New York Center
09:44AM 39.7906 -74.7314 84° East 335 386 14,600 2,220 Climbing New York Center
09:45AM 39.8008 -74.6158 83° East 347 399 16,500 1,860 Climbing New York Center
09:46AM 39.8108 -74.4975 84° East 359 413 18,300 1,920 Climbing New York Center
09:48AM 39.8233 -74.2122 87° East 402 463 22,000 1,860 Climbing Boston Center
09:49AM 39.8917 -74.1003 51° Northeast 380 437 23,700 1,680 Climbing Boston Center
09:50AM 39.9744 -73.9969 44° Northeast 389 448 25,500 1,500 Climbing Boston Center
09:51AM 40.0761 -73.8744 43° Northeast 395 455 27,100 1,260 Climbing Boston Center
09:53AM 40.1606 -73.7678 44° Northeast 406 467 28,300 900 Climbing Boston Center
09:54AM 40.2494 -73.6553 44° Northeast 418 481 29,000 300 Climbing Boston Center
09:55AM 40.3381 -73.5481 43° Northeast 423 487 29,000  Level Boston Center
09:55AM 40.4286 -73.4378 43° Northeast 428 493 29,000  Level Boston Center
09:56AM 40.5131 -73.3272 45° Northeast 428 493 29,000  Level Boston Center
09:57AM 40.6014 -73.2164 44° Northeast 428 493 29,000  Level Boston Center
09:58AM 40.6917 -73.1053 43° Northeast 433 498 29,000  Level Boston Center
10:00AM 40.7714 -73.0072 43° Northeast 433 498 29,000  Level Boston Center
10:00AM 40.8594 -72.8928 44° Northeast 433 498 29,000  Level Boston Center
10:01AM 40.9286 -72.8028 44° Northeast 433 498 29,000  Level Boston Center
10:02AM 41.0350 -72.6683 44° Northeast 433 498 29,000  Level Boston Center
10:04AM 41.1228 -72.5614 43° Northeast 433 498 29,000  Level Boston Center
10:04AM 41.2103 -72.4511 43° Northeast 433 498 29,000  Level Boston Center
10:06AM 41.3000 -72.3325 45° Northeast 433 498 29,000  Level Boston Center
10:07AM 41.4039 -72.2047 43° Northeast 428 493 29,000  Level Boston Center
10:08AM 41.4933 -72.0908 44° Northeast 428 493 29,000  Level Boston Center
10:09AM 41.5806 -71.9822 43° Northeast 428 493 29,000  Level Boston Center
10:10AM 41.6675 -71.8706 44° Northeast 423 487 29,000  Level Boston Center
10:11AM 41.7544 -71.7611 43° Northeast 423 487 29,000  Level Boston Center
10:12AM 41.8369 -71.6431 47° Northeast 423 487 29,000  Level Boston Center
10:13AM 41.9006 -71.5000 59° Northeast 433 498 29,000  Level Boston Center
10:14AM 41.9575 -71.3542 62° Northeast 438 504 29,000  Level Boston Center
10:15AM 42.0481 -71.2378 44° Northeast 438 504 29,000 -840 Level Boston Center
10:16AM 42.1364 -71.1328 41° Northeast 425 489 27,400 -1,080 Descending Boston Center
10:17AM 42.2414 -71.0100 41° Northeast 420 483 26,700 -1,020 Descending Boston Center
10:18AM 42.3275 -70.9097 41° Northeast 413 475 25,200 -1,380 Descending Boston Center
10:19AM 42.4094 -70.8036 44° Northeast 405 466 24,000 -900 Descending Boston Center
10:20AM 42.5000 -70.7336 30° Northeast 393 452 23,500 -1,380 Descending Boston Center
10:21AM 42.6014 -70.6856 19° North 375 432 21,400 -2,040 Descending Boston Center
10:22AM 42.6967 -70.6319 22° Northeast 375 432 19,400 -1,980 Descending Boston Center
10:23AM 42.7936 -70.5697 25° Northeast 357 411 17,500 -1,800 Descending Boston Center
10:24AM 42.8800 -70.5133 26° Northeast 351 404 15,800 -1,860 Descending Boston Center
10:25AM 42.9667 -70.4567 26° Northeast 351 404 13,800 -1,860 Descending Boston Center
10:26AM 43.0428 -70.4061 26° Northeast 335 386 12,200 -1,440 Descending Boston Center
10:27AM 43.1250 -70.3322 33° Northeast 324 373 11,000 -780 Descending Boston Center
10:28AM 43.2008 -70.2697 31° Northeast 317 365 10,700 -960 Descending Boston Center
10:29AM 43.2706 -70.2103 32° Northeast 302 348 9,100 -1,860 Descending Boston Center
10:30AM 43.3383 -70.1619 27° Northeast 283 326 7,000 -2,460 Descending Boston Center
10:31AM 43.4131 -70.1364 14° North 271 312 4,300 -1,980 Descending Boston Center
10:32AM 43.4856 -70.1136 13° North 264 304 3,100 -900 Descending Boston Center
10:33AM 43.5567 -70.1253 353° North 254 292 2,600 -600 Descending Boston Center
10:34AM 43.6256 -70.1397 351° North 254 292 2,000 -600 Descending Boston Center
10:35AM 43.6561 -70.2017 304° West 204 235 1,500 -600 Descending Boston Center
10:36AM 43.6508 -70.2536 262° West 158 182 800 -660 Descending Boston Center
10:37AM 43.6453 -70.2967 260° West 133 153 200 5,040 Descending Boston Center
10:38AM 43.6483 -70.3511 274° West 133 153 11,000 5,340 Climbing Boston Center
10:39AM 43.6494 -70.4028 272° West 133 153 11,000  Level Boston Center